CFK6 weather

Olds (Netook) Airport
Olds, Alberta, Canada

Public forecast

Using degrees Celsius for public forecast. Weather courtesy of forecast.io.

METAR (pilot weather report)

Closest report is Red Deer Regional Airport, 20.9 nm (38.8 km) NNE. Retrieved 2019/07/24 05:00 UTC (38 minutes ago):

CYQF 240500Z CCA 01006KT 15SM FEW030TCU BKN140 BKN250 20/18 A2988 RMK TCU2AC3CI1 FRQ LTGICCG DIST W-N SLP114 DENSITY ALT 4300FT

TAF (pilot weather forecast)

Forecast is more than 12 hours old.

Closest forecast is Red Deer Regional Airport, 20.9 nm (38.8 km) NNE. Retrieved 2019/07/23 00:45 UTC (1 day ago):

TAF CYQF 232344Z 2400/2412 13008KT P6SM FEW050 BECMG 2406/2408 24006KT FM240800 24006KT P6SM SKC PROB30 2408/2412 1SM BR RMK NXT FCST BY 240600Z